Share

Barranquilla, Colombia

12:27 AM COT en Abril 25, 2014 (GMT -0500)
Rafael Nunez (SKCG) Alt 39 ft | 10.45 °N, 75.52 °W | Change Station

Current weather conditions updated 27 minutes ago

Scattered Clouds
Nubes dispersas
81 ° F
Sensación térmica 87 ° F
N
7
Viento Variable Viento desde NNE
Amanecer 5:43 AM
Atardecer 6:10 PM
Luna Creciente menguante

Hoy se prevé una temperatura muy similar a la de ayer. Tormentas..

Presión 29.83 pul
Visibilidad 6.2 Millas
Nubes Baja 1500 ft
Nubes dispersas 20000 ft
Índice de calor 87 ° F
Punto de rocío 77 ° F
Humedad 89%
Precipitaciones 0.00 pul
Espesor de la nieve No disponible.
UV 0 de una escala de 16
Polen No disponible.
Calidad del aire No disponible.
Flu Activity No disponible.
METAR SKCG 250500Z 03006KT 9999 FEW015 SCT200 27/25 A2983

More Conditions Fewer Conditions

Presión 29.83 pul
Visibilidad 6.2 Millas
Nubes Baja 1500 ft
Nubes dispersas 20000 ft
Índice de calor 87 ° F
Punto de rocío 77 ° F
Humedad 89%
Precipitaciones 0.00 pul
Espesor de la nieve No disponible.
UV 0 de una escala de 16
Polen No disponible.
Calidad del aire No disponible.
Flu Activity No disponible.
METAR SKCG 250500Z 03006KT 9999 FEW015 SCT200 27/25 A2983

More Conditions Fewer Conditions

10-Day Weather Forecast

Almanac

Astronomía

Apr. 25, 2014 Salida Puesta
Hora real 5:43 AM COT 6:10 PM COT
Crepúsculo civil 5:21 AM COT 6:32 PM COT
Crepúsculo náutico 4:56 AM COT 6:58 PM COT
Crepúsculo astronómico 4:30 AM COT 7:23 PM COT
Luna 2:46 AM COT 3:08 PM COT
Horas de luz 13h 11m
Horas de luz
12h 27m
Tomorrow will be 0m 33s longer.
Creciente menguante, 19% of the Moon is Illuminated
Hoy
Creciente menguante
Abr 29
Nueva
May 6
Cuarto creciente
May 14
Luna llena
May 21
Cuarto menguante

Extremos de ayer

Máximos del país Bajas del país

Community

  • Deer in evening light
    Deer in evening light
  • Critter
    Critter
  • Jone Runs Falls
    Jone Runs Falls
  • Easter in Shenandoah National Park
    Easter in Shenandoah National Park
  • Sunset at Apalachicola Bay, Florida
    Sunset at Apalachicola Bay, Florida

WunderPhotos

Upload Photos

1,704,861 ¡fotos cargadas!

WunderBlogs® & News

Nearby

Calidad del aire

Not available.

Grosos de nieve

Not available.

Temperaturas de aguas costeras

Lugar Temperatura
Sin partes meteorológicos de las estaciones

Actividad de terremotos

Ciudad Distance Mag. Tiempo y dato
No hay informes recientes de la actividad sísmica.
Magnitud mínima muestra es 2,5.

Estaciones meteorológicas cercanas

No hay estaciones meteorológicas personales en esta zona.

What do you think?

We're not finished. Please let us know what you like, what you don't like, and what you are still missing.